Rusco, Nebraska
Current Conditions -  °F | °C
As of 3:35 PM on Friday 28 Nov 2014 (Local Time) from KEAR Reporting Station
Clear Clear  
Wind Chill: 70°   Ceiling: Unl
Heat Index: 70°   Visibility: 10mi
Dew Point: 25°   Wind: 8mph
Humidity: 18%   Direction: 230°SW
Pressure: 29.69"   Gusts: NA
Location:  41.0031°N, 99.1882°W
Report Text: KEAR 282135Z 23007KT 10SM CLR 21/M04 A2969 RMK AO1
Loading
Personal Weather Stations






























Interactive Weather Map New forecast layout! Learn more

10-Day Weather Forecast

Advertisements
Track Severe Weather on mobile